sensor_id;sensor_type;location;lat;lon;timestamp;P1;durP1;ratioP1;P2;durP2;ratioP2
23222;SDS011;11780;13.904;100.620;2023-08-12T00:01:49;21.08;;;10.02;;
23222;SDS011;11780;13.904;100.620;2023-08-12T00:04:20;19.77;;;9.93;;
23222;SDS011;11780;13.904;100.620;2023-08-12T00:06:50;17.80;;;9.83;;
23222;SDS011;11780;13.904;100.620;2023-08-12T00:09:21;17.37;;;9.53;;
23222;SDS011;11780;13.904;100.620;2023-08-12T00:11:51;18.93;;;9.60;;
23222;SDS011;11780;13.904;100.620;2023-08-12T00:14:21;19.33;;;9.50;;
23222;SDS011;11780;13.904;100.620;2023-08-12T00:16:52;16.63;;;8.80;;
23222;SDS011;11780;13.904;100.620;2023-08-12T00:19:22;18.15;;;9.18;;
23222;SDS011;11780;13.904;100.620;2023-08-12T00:21:53;18.20;;;10.20;;
23222;SDS011;11780;13.904;100.620;2023-08-12T00:24:23;24.30;;;10.10;;
23222;SDS011;11780;13.904;100.620;2023-08-12T00:26:54;16.27;;;8.93;;
23222;SDS011;11780;13.904;100.620;2023-08-12T00:29:24;16.87;;;8.27;;
23222;SDS011;11780;13.904;100.620;2023-08-12T00:31:55;17.20;;;9.13;;
23222;SDS011;11780;13.904;100.620;2023-08-12T00:34:25;18.27;;;8.93;;
23222;SDS011;11780;13.904;100.620;2023-08-12T00:36:56;15.15;;;8.48;;
23222;SDS011;11780;13.904;100.620;2023-08-12T00:39:27;18.13;;;9.27;;
23222;SDS011;11780;13.904;100.620;2023-08-12T00:41:57;19.87;;;9.10;;
23222;SDS011;11780;13.904;100.620;2023-08-12T00:44:28;15.00;;;9.43;;
23222;SDS011;11780;13.904;100.620;2023-08-12T00:46:59;18.03;;;8.43;;
23222;SDS011;11780;13.904;100.620;2023-08-12T00:49:30;19.17;;;9.23;;
23222;SDS011;11780;13.904;100.620;2023-08-12T00:52:02;20.77;;;10.07;;
23222;SDS011;11780;13.904;100.620;2023-08-12T00:54:33;16.07;;;9.07;;
23222;SDS011;11780;13.904;100.620;2023-08-12T00:57:03;20.53;;;9.17;;
23222;SDS011;11780;13.904;100.620;2023-08-12T00:59:35;16.38;;;9.65;;
23222;SDS011;11780;13.904;100.620;2023-08-12T01:02:09;17.10;;;9.02;;
23222;SDS011;11780;13.904;100.620;2023-08-12T01:04:42;19.10;;;8.45;;
23222;SDS011;11780;13.904;100.620;2023-08-12T01:09:43;20.05;;;9.13;;
23222;SDS011;11780;13.904;100.620;2023-08-12T01:12:17;17.73;;;9.37;;
23222;SDS011;11780;13.904;100.620;2023-08-12T01:17:45;20.15;;;8.85;;
23222;SDS011;11780;13.904;100.620;2023-08-12T01:20:21;20.05;;;8.43;;
23222;SDS011;11780;13.904;100.620;2023-08-12T01:22:57;22.63;;;9.75;;
23222;SDS011;11780;13.904;100.620;2023-08-12T01:25:39;19.92;;;9.35;;
23222;SDS011;11780;13.904;100.620;2023-08-12T01:28:10;18.67;;;8.63;;
23222;SDS011;11780;13.904;100.620;2023-08-12T01:30:46;14.70;;;8.23;;
23222;SDS011;11780;13.904;100.620;2023-08-12T01:33:28;21.92;;;8.80;;
23222;SDS011;11780;13.904;100.620;2023-08-12T01:38:49;14.65;;;8.80;;
23222;SDS011;11780;13.904;100.620;2023-08-12T01:41:22;26.17;;;9.50;;
23222;SDS011;11780;13.904;100.620;2023-08-12T01:43:54;18.98;;;9.13;;
23222;SDS011;11780;13.904;100.620;2023-08-12T01:46:25;18.90;;;9.32;;
23222;SDS011;11780;13.904;100.620;2023-08-12T01:48:56;16.75;;;8.65;;
23222;SDS011;11780;13.904;100.620;2023-08-12T01:51:26;16.00;;;8.80;;
23222;SDS011;11780;13.904;100.620;2023-08-12T01:53:57;16.97;;;8.47;;
23222;SDS011;11780;13.904;100.620;2023-08-12T01:56:28;22.30;;;10.35;;
23222;SDS011;11780;13.904;100.620;2023-08-12T01:58:58;27.85;;;11.27;;
23222;SDS011;11780;13.904;100.620;2023-08-12T02:01:29;19.85;;;10.15;;
23222;SDS011;11780;13.904;100.620;2023-08-12T02:04:00;23.10;;;10.27;;
23222;SDS011;11780;13.904;100.620;2023-08-12T02:06:31;22.83;;;10.35;;
23222;SDS011;11780;13.904;100.620;2023-08-12T02:09:01;20.92;;;9.93;;
23222;SDS011;11780;13.904;100.620;2023-08-12T02:11:32;20.77;;;9.27;;
23222;SDS011;11780;13.904;100.620;2023-08-12T02:14:02;22.37;;;10.23;;
23222;SDS011;11780;13.904;100.620;2023-08-12T02:16:32;19.05;;;9.75;;
23222;SDS011;11780;13.904;100.620;2023-08-12T02:19:03;14.70;;;8.13;;
23222;SDS011;11780;13.904;100.620;2023-08-12T02:21:33;18.30;;;8.37;;
23222;SDS011;11780;13.904;100.620;2023-08-12T02:24:04;17.30;;;9.27;;
23222;SDS011;11780;13.904;100.620;2023-08-12T02:26:37;18.40;;;8.82;;
23222;SDS011;11780;13.904;100.620;2023-08-12T02:31:37;16.40;;;7.82;;
23222;SDS011;11780;13.904;100.620;2023-08-12T02:34:08;19.67;;;8.53;;
23222;SDS011;11780;13.904;100.620;2023-08-12T02:36:39;17.75;;;8.27;;
23222;SDS011;11780;13.904;100.620;2023-08-12T02:39:09;16.10;;;8.77;;
23222;SDS011;11780;13.904;100.620;2023-08-12T02:41:40;20.43;;;8.50;;
23222;SDS011;11780;13.904;100.620;2023-08-12T02:44:10;16.43;;;8.93;;
23222;SDS011;11780;13.904;100.620;2023-08-12T02:46:41;16.20;;;8.10;;
23222;SDS011;11780;13.904;100.620;2023-08-12T02:49:12;17.20;;;8.10;;
23222;SDS011;11780;13.904;100.620;2023-08-12T02:51:43;24.05;;;9.65;;
23222;SDS011;11780;13.904;100.620;2023-08-12T02:54:14;16.83;;;8.82;;
23222;SDS011;11780;13.904;100.620;2023-08-12T02:56:44;15.38;;;8.35;;
23222;SDS011;11780;13.904;100.620;2023-08-12T02:59:14;18.60;;;8.23;;
23222;SDS011;11780;13.904;100.620;2023-08-12T03:01:45;19.37;;;7.90;;
23222;SDS011;11780;13.904;100.620;2023-08-12T03:04:15;15.97;;;7.37;;
23222;SDS011;11780;13.904;100.620;2023-08-12T03:06:46;14.60;;;7.53;;
23222;SDS011;11780;13.904;100.620;2023-08-12T03:09:16;21.10;;;8.60;;
23222;SDS011;11780;13.904;100.620;2023-08-12T03:11:47;15.75;;;8.75;;
23222;SDS011;11780;13.904;100.620;2023-08-12T03:14:18;18.13;;;8.07;;
23222;SDS011;11780;13.904;100.620;2023-08-12T03:16:48;20.38;;;7.53;;
23222;SDS011;11780;13.904;100.620;2023-08-12T03:19:19;14.87;;;7.23;;
23222;SDS011;11780;13.904;100.620;2023-08-12T03:21:49;13.32;;;7.15;;
23222;SDS011;11780;13.904;100.620;2023-08-12T03:24:21;18.67;;;7.53;;
23222;SDS011;11780;13.904;100.620;2023-08-12T03:26:52;18.02;;;7.75;;
23222;SDS011;11780;13.904;100.620;2023-08-12T03:29:22;16.30;;;7.50;;
23222;SDS011;11780;13.904;100.620;2023-08-12T03:31:53;13.18;;;7.30;;
23222;SDS011;11780;13.904;100.620;2023-08-12T03:36:54;15.32;;;6.90;;
23222;SDS011;11780;13.904;100.620;2023-08-12T03:39:26;14.25;;;6.53;;
23222;SDS011;11780;13.904;100.620;2023-08-12T03:41:58;11.63;;;6.43;;
23222;SDS011;11780;13.904;100.620;2023-08-12T03:44:29;13.87;;;6.73;;
23222;SDS011;11780;13.904;100.620;2023-08-12T03:46:59;14.57;;;6.85;;
23222;SDS011;11780;13.904;100.620;2023-08-12T03:49:32;16.20;;;5.93;;
23222;SDS011;11780;13.904;100.620;2023-08-12T03:52:02;13.70;;;6.80;;
23222;SDS011;11780;13.904;100.620;2023-08-12T03:54:33;12.25;;;6.15;;
23222;SDS011;11780;13.904;100.620;2023-08-12T03:57:04;13.68;;;6.40;;
23222;SDS011;11780;13.904;100.620;2023-08-12T03:59:34;16.77;;;10.60;;
23222;SDS011;11780;13.904;100.620;2023-08-12T04:02:05;18.17;;;7.20;;
23222;SDS011;11780;13.904;100.620;2023-08-12T04:04:36;16.63;;;7.80;;
23222;SDS011;11780;13.904;100.620;2023-08-12T04:07:06;18.23;;;6.88;;
23222;SDS011;11780;13.904;100.620;2023-08-12T04:12:07;23.17;;;12.77;;
23222;SDS011;11780;13.904;100.620;2023-08-12T04:14:37;13.38;;;7.18;;
23222;SDS011;11780;13.904;100.620;2023-08-12T04:17:10;14.95;;;7.53;;
23222;SDS011;11780;13.904;100.620;2023-08-12T04:19:41;18.70;;;9.05;;
23222;SDS011;11780;13.904;100.620;2023-08-12T04:22:12;18.10;;;8.23;;
23222;SDS011;11780;13.904;100.620;2023-08-12T04:24:42;18.77;;;9.03;;
23222;SDS011;11780;13.904;100.620;2023-08-12T04:27:12;21.73;;;10.27;;
23222;SDS011;11780;13.904;100.620;2023-08-12T04:29:45;16.00;;;8.07;;
23222;SDS011;11780;13.904;100.620;2023-08-12T04:32:16;13.68;;;8.20;;
23222;SDS011;11780;13.904;100.620;2023-08-12T04:34:46;15.30;;;8.00;;
23222;SDS011;11780;13.904;100.620;2023-08-12T04:37:17;16.70;;;7.70;;
23222;SDS011;11780;13.904;100.620;2023-08-12T04:39:49;14.95;;;7.63;;
23222;SDS011;11780;13.904;100.620;2023-08-12T04:42:20;11.50;;;7.75;;
23222;SDS011;11780;13.904;100.620;2023-08-12T04:44:50;18.08;;;7.75;;
23222;SDS011;11780;13.904;100.620;2023-08-12T04:47:21;15.50;;;8.07;;
23222;SDS011;11780;13.904;100.620;2023-08-12T04:49:56;14.05;;;7.95;;
23222;SDS011;11780;13.904;100.620;2023-08-12T04:52:28;15.63;;;8.45;;
23222;SDS011;11780;13.904;100.620;2023-08-12T04:54:58;16.30;;;7.93;;
23222;SDS011;11780;13.904;100.620;2023-08-12T04:57:29;17.77;;;7.87;;
23222;SDS011;11780;13.904;100.620;2023-08-12T04:59:59;12.67;;;7.90;;
23222;SDS011;11780;13.904;100.620;2023-08-12T05:02:30;18.92;;;8.68;;
23222;SDS011;11780;13.904;100.620;2023-08-12T05:05:01;17.73;;;8.00;;
23222;SDS011;11780;13.904;100.620;2023-08-12T05:07:33;16.40;;;8.00;;
23222;SDS011;11780;13.904;100.620;2023-08-12T05:10:07;19.10;;;7.82;;
23222;SDS011;11780;13.904;100.620;2023-08-12T05:12:38;15.02;;;8.13;;
23222;SDS011;11780;13.904;100.620;2023-08-12T05:15:09;20.23;;;7.93;;
23222;SDS011;11780;13.904;100.620;2023-08-12T05:17:41;15.50;;;8.18;;
23222;SDS011;11780;13.904;100.620;2023-08-12T05:20:14;14.55;;;6.90;;
23222;SDS011;11780;13.904;100.620;2023-08-12T05:22:46;15.85;;;7.75;;
23222;SDS011;11780;13.904;100.620;2023-08-12T05:25:16;14.55;;;7.82;;
23222;SDS011;11780;13.904;100.620;2023-08-12T05:27:47;15.45;;;7.53;;
23222;SDS011;11780;13.904;100.620;2023-08-12T05:30:18;16.00;;;7.63;;
23222;SDS011;11780;13.904;100.620;2023-08-12T05:32:48;20.17;;;7.67;;
23222;SDS011;11780;13.904;100.620;2023-08-12T05:35:19;17.85;;;7.78;;
23222;SDS011;11780;13.904;100.620;2023-08-12T05:37:50;17.98;;;7.50;;
23222;SDS011;11780;13.904;100.620;2023-08-12T05:40:21;15.73;;;8.30;;
23222;SDS011;11780;13.904;100.620;2023-08-12T05:42:51;14.25;;;7.57;;
23222;SDS011;11780;13.904;100.620;2023-08-12T05:45:22;16.10;;;8.48;;
23222;SDS011;11780;13.904;100.620;2023-08-12T05:47:52;20.33;;;8.30;;
23222;SDS011;11780;13.904;100.620;2023-08-12T05:50:23;17.38;;;8.20;;
23222;SDS011;11780;13.904;100.620;2023-08-12T05:52:53;17.30;;;7.80;;
23222;SDS011;11780;13.904;100.620;2023-08-12T05:55:24;18.60;;;8.40;;
23222;SDS011;11780;13.904;100.620;2023-08-12T05:57:54;18.17;;;8.47;;
23222;SDS011;11780;13.904;100.620;2023-08-12T06:00:25;15.10;;;8.57;;
23222;SDS011;11780;13.904;100.620;2023-08-12T06:02:55;15.40;;;8.73;;
23222;SDS011;11780;13.904;100.620;2023-08-12T06:05:26;16.97;;;9.30;;
23222;SDS011;11780;13.904;100.620;2023-08-12T06:07:56;14.30;;;7.70;;
23222;SDS011;11780;13.904;100.620;2023-08-12T06:10:26;18.63;;;8.43;;
23222;SDS011;11780;13.904;100.620;2023-08-12T06:12:57;15.47;;;8.13;;
23222;SDS011;11780;13.904;100.620;2023-08-12T06:15:27;17.53;;;8.87;;
23222;SDS011;11780;13.904;100.620;2023-08-12T06:17:58;15.93;;;9.20;;
23222;SDS011;11780;13.904;100.620;2023-08-12T06:22:59;16.45;;;8.40;;
23222;SDS011;11780;13.904;100.620;2023-08-12T06:25:29;21.38;;;9.02;;
23222;SDS011;11780;13.904;100.620;2023-08-12T06:28:00;14.82;;;8.38;;
23222;SDS011;11780;13.904;100.620;2023-08-12T06:30:31;15.73;;;8.20;;
23222;SDS011;11780;13.904;100.620;2023-08-12T06:33:01;15.37;;;8.63;;
23222;SDS011;11780;13.904;100.620;2023-08-12T06:35:31;16.00;;;8.50;;
23222;SDS011;11780;13.904;100.620;2023-08-12T06:38:02;16.73;;;9.02;;
23222;SDS011;11780;13.904;100.620;2023-08-12T06:40:32;14.97;;;9.60;;
23222;SDS011;11780;13.904;100.620;2023-08-12T06:43:02;17.40;;;9.27;;
23222;SDS011;11780;13.904;100.620;2023-08-12T06:45:33;16.17;;;9.17;;
23222;SDS011;11780;13.904;100.620;2023-08-12T06:48:03;20.60;;;10.27;;
23222;SDS011;11780;13.904;100.620;2023-08-12T06:50:34;17.48;;;10.07;;
23222;SDS011;11780;13.904;100.620;2023-08-12T06:53:04;17.83;;;10.18;;
23222;SDS011;11780;13.904;100.620;2023-08-12T06:55:35;20.42;;;9.80;;
23222;SDS011;11780;13.904;100.620;2023-08-12T06:58:05;16.88;;;10.02;;
23222;SDS011;11780;13.904;100.620;2023-08-12T07:00:35;18.50;;;10.10;;
23222;SDS011;11780;13.904;100.620;2023-08-12T07:03:05;20.35;;;9.55;;
23222;SDS011;11780;13.904;100.620;2023-08-12T07:05:36;18.70;;;9.70;;
23222;SDS011;11780;13.904;100.620;2023-08-12T07:08:06;20.60;;;10.60;;
23222;SDS011;11780;13.904;100.620;2023-08-12T07:10:40;13.77;;;9.93;;
23222;SDS011;11780;13.904;100.620;2023-08-12T07:13:10;15.75;;;9.40;;
23222;SDS011;11780;13.904;100.620;2023-08-12T07:15:41;20.75;;;9.52;;
23222;SDS011;11780;13.904;100.620;2023-08-12T07:18:11;15.97;;;9.07;;
23222;SDS011;11780;13.904;100.620;2023-08-12T07:20:41;14.10;;;8.20;;
23222;SDS011;11780;13.904;100.620;2023-08-12T07:23:12;15.25;;;9.38;;
23222;SDS011;11780;13.904;100.620;2023-08-12T07:25:45;14.23;;;8.57;;
23222;SDS011;11780;13.904;100.620;2023-08-12T07:28:16;18.10;;;8.75;;
23222;SDS011;11780;13.904;100.620;2023-08-12T07:30:47;18.23;;;8.73;;
23222;SDS011;11780;13.904;100.620;2023-08-12T07:33:19;19.05;;;8.90;;
23222;SDS011;11780;13.904;100.620;2023-08-12T07:35:51;16.25;;;8.68;;
23222;SDS011;11780;13.904;100.620;2023-08-12T07:38:21;21.73;;;8.63;;
23222;SDS011;11780;13.904;100.620;2023-08-12T07:40:52;13.85;;;8.23;;
23222;SDS011;11780;13.904;100.620;2023-08-12T07:43:23;21.45;;;8.20;;
23222;SDS011;11780;13.904;100.620;2023-08-12T07:45:54;15.13;;;8.40;;
23222;SDS011;11780;13.904;100.620;2023-08-12T07:48:36;17.83;;;8.07;;
23222;SDS011;11780;13.904;100.620;2023-08-12T07:51:07;15.15;;;8.73;;
23222;SDS011;11780;13.904;100.620;2023-08-12T07:53:38;19.30;;;9.00;;
23222;SDS011;11780;13.904;100.620;2023-08-12T07:56:08;20.37;;;8.33;;
23222;SDS011;11780;13.904;100.620;2023-08-12T07:58:39;18.40;;;8.45;;
23222;SDS011;11780;13.904;100.620;2023-08-12T08:01:09;15.88;;;8.60;;
23222;SDS011;11780;13.904;100.620;2023-08-12T08:03:40;12.80;;;8.40;;
23222;SDS011;11780;13.904;100.620;2023-08-12T08:06:11;15.80;;;8.55;;
23222;SDS011;11780;13.904;100.620;2023-08-12T08:08:41;15.47;;;9.17;;
23222;SDS011;11780;13.904;100.620;2023-08-12T08:11:11;14.38;;;8.10;;
23222;SDS011;11780;13.904;100.620;2023-08-12T08:13:42;14.20;;;8.33;;
23222;SDS011;11780;13.904;100.620;2023-08-12T08:16:12;23.13;;;8.77;;
23222;SDS011;11780;13.904;100.620;2023-08-12T08:18:43;16.60;;;8.52;;
23222;SDS011;11780;13.904;100.620;2023-08-12T08:21:13;14.53;;;8.53;;
23222;SDS011;11780;13.904;100.620;2023-08-12T08:23:44;17.13;;;9.03;;
23222;SDS011;11780;13.904;100.620;2023-08-12T08:26:14;19.50;;;7.97;;
23222;SDS011;11780;13.904;100.620;2023-08-12T08:28:45;15.95;;;8.52;;
23222;SDS011;11780;13.904;100.620;2023-08-12T08:31:17;14.27;;;8.52;;
23222;SDS011;11780;13.904;100.620;2023-08-12T08:36:18;16.10;;;8.63;;
23222;SDS011;11780;13.904;100.620;2023-08-12T08:38:49;26.83;;;9.23;;
23222;SDS011;11780;13.904;100.620;2023-08-12T08:41:19;15.63;;;8.97;;
23222;SDS011;11780;13.904;100.620;2023-08-12T08:43:52;18.60;;;8.70;;
23222;SDS011;11780;13.904;100.620;2023-08-12T08:46:25;16.73;;;8.35;;
23222;SDS011;11780;13.904;100.620;2023-08-12T08:48:58;15.85;;;9.05;;
23222;SDS011;11780;13.904;100.620;2023-08-12T08:51:31;17.20;;;9.00;;
23222;SDS011;11780;13.904;100.620;2023-08-12T08:54:03;19.23;;;8.40;;
23222;SDS011;11780;13.904;100.620;2023-08-12T08:56:34;13.82;;;7.68;;
23222;SDS011;11780;13.904;100.620;2023-08-12T08:59:13;12.85;;;5.00;;
23222;SDS011;11780;13.904;100.620;2023-08-12T09:01:45;9.10;;;4.35;;
23222;SDS011;11780;13.904;100.620;2023-08-12T09:04:23;7.38;;;3.58;;
23222;SDS011;11780;13.904;100.620;2023-08-12T09:06:55;13.30;;;4.28;;
23222;SDS011;11780;13.904;100.620;2023-08-12T09:09:26;11.75;;;3.10;;
23222;SDS011;11780;13.904;100.620;2023-08-12T09:14:27;7.97;;;3.50;;
23222;SDS011;11780;13.904;100.620;2023-08-12T09:16:58;5.82;;;3.17;;
23222;SDS011;11780;13.904;100.620;2023-08-12T09:21:59;6.47;;;3.17;;
23222;SDS011;11780;13.904;100.620;2023-08-12T09:24:29;4.30;;;2.77;;
23222;SDS011;11780;13.904;100.620;2023-08-12T09:27:00;3.47;;;2.67;;
23222;SDS011;11780;13.904;100.620;2023-08-12T09:29:31;7.93;;;3.50;;
23222;SDS011;11780;13.904;100.620;2023-08-12T09:32:12;7.03;;;3.10;;
23222;SDS011;11780;13.904;100.620;2023-08-12T09:34:47;5.68;;;3.42;;
23222;SDS011;11780;13.904;100.620;2023-08-12T09:37:23;8.20;;;3.25;;
23222;SDS011;11780;13.904;100.620;2023-08-12T09:39:54;4.93;;;3.40;;
23222;SDS011;11780;13.904;100.620;2023-08-12T09:42:27;9.95;;;3.80;;
23222;SDS011;11780;13.904;100.620;2023-08-12T09:44:58;6.67;;;4.07;;
23222;SDS011;11780;13.904;100.620;2023-08-12T09:47:29;8.40;;;3.97;;
23222;SDS011;11780;13.904;100.620;2023-08-12T09:50:01;6.70;;;4.07;;
23222;SDS011;11780;13.904;100.620;2023-08-12T09:52:31;8.53;;;4.93;;
23222;SDS011;11780;13.904;100.620;2023-08-12T09:55:02;7.43;;;4.80;;
23222;SDS011;11780;13.904;100.620;2023-08-12T09:57:36;10.40;;;5.95;;
23222;SDS011;11780;13.904;100.620;2023-08-12T10:00:12;13.40;;;5.90;;
23222;SDS011;11780;13.904;100.620;2023-08-12T10:02:47;12.25;;;5.55;;
23222;SDS011;11780;13.904;100.620;2023-08-12T10:05:21;9.57;;;5.88;;
23222;SDS011;11780;13.904;100.620;2023-08-12T10:07:56;11.65;;;5.53;;
23222;SDS011;11780;13.904;100.620;2023-08-12T10:10:28;11.32;;;5.53;;
23222;SDS011;11780;13.904;100.620;2023-08-12T10:13:00;10.13;;;5.60;;
23222;SDS011;11780;13.904;100.620;2023-08-12T10:18:01;9.85;;;6.07;;
23222;SDS011;11780;13.904;100.620;2023-08-12T10:20:38;12.18;;;5.63;;
23222;SDS011;11780;13.904;100.620;2023-08-12T10:23:14;12.55;;;5.47;;
23222;SDS011;11780;13.904;100.620;2023-08-12T10:25:47;11.23;;;5.25;;
23222;SDS011;11780;13.904;100.620;2023-08-12T10:28:23;16.63;;;5.40;;
23222;SDS011;11780;13.904;100.620;2023-08-12T10:30:54;7.72;;;5.00;;
23222;SDS011;11780;13.904;100.620;2023-08-12T10:33:25;10.25;;;5.00;;
23222;SDS011;11780;13.904;100.620;2023-08-12T10:36:08;8.05;;;4.82;;
23222;SDS011;11780;13.904;100.620;2023-08-12T10:38:55;11.77;;;4.60;;
23222;SDS011;11780;13.904;100.620;2023-08-12T10:41:49;9.77;;;5.32;;
23222;SDS011;11780;13.904;100.620;2023-08-12T10:44:40;8.57;;;5.10;;
23222;SDS011;11780;13.904;100.620;2023-08-12T10:47:40;12.68;;;5.63;;
23222;SDS011;11780;13.904;100.620;2023-08-12T10:50:33;10.45;;;5.47;;
23222;SDS011;11780;13.904;100.620;2023-08-12T10:53:27;11.82;;;5.60;;
23222;SDS011;11780;13.904;100.620;2023-08-12T10:56:17;11.02;;;6.15;;
23222;SDS011;11780;13.904;100.620;2023-08-12T10:59:03;10.63;;;6.50;;
23222;SDS011;11780;13.904;100.620;2023-08-12T11:01:48;14.10;;;6.05;;
23222;SDS011;11780;13.904;100.620;2023-08-12T11:04:37;9.38;;;5.10;;
23222;SDS011;11780;13.904;100.620;2023-08-12T11:10:30;15.23;;;6.43;;
23222;SDS011;11780;13.904;100.620;2023-08-12T11:13:17;14.82;;;6.88;;
23222;SDS011;11780;13.904;100.620;2023-08-12T11:16:07;14.93;;;6.75;;
23222;SDS011;11780;13.904;100.620;2023-08-12T11:18:54;13.50;;;6.68;;
23222;SDS011;11780;13.904;100.620;2023-08-12T11:21:40;11.15;;;6.47;;
23222;SDS011;11780;13.904;100.620;2023-08-12T11:24:28;11.30;;;6.57;;
23222;SDS011;11780;13.904;100.620;2023-08-12T11:27:16;12.55;;;6.50;;
23222;SDS011;11780;13.904;100.620;2023-08-12T11:30:02;11.68;;;6.40;;
23222;SDS011;11780;13.904;100.620;2023-08-12T11:32:49;16.13;;;7.07;;
23222;SDS011;11780;13.904;100.620;2023-08-12T11:35:36;14.27;;;7.10;;
23222;SDS011;11780;13.904;100.620;2023-08-12T11:38:22;14.32;;;6.70;;
23222;SDS011;11780;13.904;100.620;2023-08-12T11:41:09;16.67;;;6.82;;
23222;SDS011;11780;13.904;100.620;2023-08-12T11:43:54;12.55;;;7.05;;
23222;SDS011;11780;13.904;100.620;2023-08-12T11:46:39;14.82;;;7.28;;
23222;SDS011;11780;13.904;100.620;2023-08-12T11:49:25;23.50;;;8.50;;
23222;SDS011;11780;13.904;100.620;2023-08-12T11:52:10;21.63;;;8.90;;
23222;SDS011;11780;13.904;100.620;2023-08-12T11:54:56;14.88;;;7.55;;
23222;SDS011;11780;13.904;100.620;2023-08-12T11:57:42;18.88;;;7.53;;
23222;SDS011;11780;13.904;100.620;2023-08-12T12:00:29;18.85;;;7.30;;
23222;SDS011;11780;13.904;100.620;2023-08-12T12:03:15;17.13;;;6.72;;
23222;SDS011;11780;13.904;100.620;2023-08-12T12:06:02;11.90;;;6.60;;
23222;SDS011;11780;13.904;100.620;2023-08-12T12:08:47;15.82;;;6.18;;
23222;SDS011;11780;13.904;100.620;2023-08-12T12:11:32;19.67;;;6.95;;
23222;SDS011;11780;13.904;100.620;2023-08-12T12:14:18;14.05;;;6.75;;
23222;SDS011;11780;13.904;100.620;2023-08-12T12:17:07;19.88;;;7.10;;
23222;SDS011;11780;13.904;100.620;2023-08-12T12:19:58;13.25;;;6.50;;
23222;SDS011;11780;13.904;100.620;2023-08-12T12:22:45;19.58;;;7.68;;
23222;SDS011;11780;13.904;100.620;2023-08-12T12:25:31;18.02;;;8.13;;
23222;SDS011;11780;13.904;100.620;2023-08-12T12:28:17;15.63;;;7.75;;
23222;SDS011;11780;13.904;100.620;2023-08-12T12:31:02;16.58;;;7.32;;
23222;SDS011;11780;13.904;100.620;2023-08-12T12:33:48;13.55;;;5.75;;
23222;SDS011;11780;13.904;100.620;2023-08-12T12:36:34;8.20;;;4.82;;
23222;SDS011;11780;13.904;100.620;2023-08-12T12:39:20;10.80;;;5.60;;
23222;SDS011;11780;13.904;100.620;2023-08-12T12:42:07;12.35;;;5.45;;
23222;SDS011;11780;13.904;100.620;2023-08-12T12:44:53;10.95;;;5.35;;
23222;SDS011;11780;13.904;100.620;2023-08-12T12:47:38;6.53;;;4.63;;
23222;SDS011;11780;13.904;100.620;2023-08-12T12:50:24;12.20;;;5.22;;
23222;SDS011;11780;13.904;100.620;2023-08-12T14:23:08;12.25;;;6.20;;
23222;SDS011;11780;13.904;100.620;2023-08-12T14:25:54;10.63;;;6.25;;
23222;SDS011;11780;13.904;100.620;2023-08-12T14:28:40;11.88;;;5.75;;
23222;SDS011;11780;13.904;100.620;2023-08-12T14:31:26;12.30;;;5.93;;
23222;SDS011;11780;13.904;100.620;2023-08-12T14:34:11;9.48;;;5.80;;
23222;SDS011;11780;13.904;100.620;2023-08-12T14:36:57;10.25;;;5.13;;
23222;SDS011;11780;13.904;100.620;2023-08-12T14:39:42;7.10;;;5.00;;
23222;SDS011;11780;13.904;100.620;2023-08-12T14:42:28;9.15;;;5.40;;
23222;SDS011;11780;13.904;100.620;2023-08-12T14:45:13;10.40;;;5.30;;
23222;SDS011;11780;13.904;100.620;2023-08-12T14:47:58;8.25;;;4.70;;
23222;SDS011;11780;13.904;100.620;2023-08-12T14:50:44;7.47;;;4.80;;
23222;SDS011;11780;13.904;100.620;2023-08-12T14:53:30;9.15;;;5.10;;
23222;SDS011;11780;13.904;100.620;2023-08-12T14:56:15;9.70;;;5.20;;
23222;SDS011;11780;13.904;100.620;2023-08-12T14:59:00;9.10;;;5.68;;
23222;SDS011;11780;13.904;100.620;2023-08-12T15:01:46;14.23;;;6.18;;
23222;SDS011;11780;13.904;100.620;2023-08-12T15:04:32;7.18;;;5.43;;
23222;SDS011;11780;13.904;100.620;2023-08-12T15:07:18;9.40;;;5.43;;
23222;SDS011;11780;13.904;100.620;2023-08-12T15:10:05;9.43;;;5.50;;
23222;SDS011;11780;13.904;100.620;2023-08-12T15:12:50;11.82;;;5.60;;
23222;SDS011;11780;13.904;100.620;2023-08-12T15:15:35;9.00;;;5.60;;
23222;SDS011;11780;13.904;100.620;2023-08-12T15:18:21;11.32;;;5.10;;
23222;SDS011;11780;13.904;100.620;2023-08-12T15:21:07;13.45;;;5.80;;
23222;SDS011;11780;13.904;100.620;2023-08-12T15:23:53;10.55;;;6.20;;
23222;SDS011;11780;13.904;100.620;2023-08-12T15:26:38;10.13;;;5.57;;
23222;SDS011;11780;13.904;100.620;2023-08-12T15:29:23;11.73;;;5.70;;
23222;SDS011;11780;13.904;100.620;2023-08-12T15:32:09;8.57;;;5.20;;
23222;SDS011;11780;13.904;100.620;2023-08-12T15:34:54;12.60;;;7.53;;
23222;SDS011;11780;13.904;100.620;2023-08-12T15:37:39;13.30;;;6.60;;
23222;SDS011;11780;13.904;100.620;2023-08-12T15:40:25;13.52;;;7.57;;
23222;SDS011;11780;13.904;100.620;2023-08-12T15:43:10;12.38;;;6.90;;
23222;SDS011;11780;13.904;100.620;2023-08-12T15:45:55;12.07;;;7.47;;
23222;SDS011;11780;13.904;100.620;2023-08-12T15:48:41;11.38;;;7.15;;
23222;SDS011;11780;13.904;100.620;2023-08-12T15:51:27;13.55;;;7.22;;
23222;SDS011;11780;13.904;100.620;2023-08-12T15:54:12;11.25;;;6.78;;
23222;SDS011;11780;13.904;100.620;2023-08-12T15:56:57;10.48;;;6.78;;
23222;SDS011;11780;13.904;100.620;2023-08-12T15:59:43;11.57;;;6.60;;
23222;SDS011;11780;13.904;100.620;2023-08-12T16:02:30;8.15;;;6.25;;
23222;SDS011;11780;13.904;100.620;2023-08-12T16:05:17;10.55;;;6.72;;
23222;SDS011;11780;13.904;100.620;2023-08-12T16:08:04;10.88;;;7.28;;
23222;SDS011;11780;13.904;100.620;2023-08-12T16:10:49;12.45;;;6.57;;
23222;SDS011;11780;13.904;100.620;2023-08-12T16:13:35;12.50;;;6.80;;
23222;SDS011;11780;13.904;100.620;2023-08-12T16:16:20;10.80;;;6.50;;
23222;SDS011;11780;13.904;100.620;2023-08-12T16:19:05;8.55;;;5.78;;
23222;SDS011;11780;13.904;100.620;2023-08-12T16:21:51;11.65;;;6.35;;
23222;SDS011;11780;13.904;100.620;2023-08-12T16:24:36;9.35;;;6.20;;
23222;SDS011;11780;13.904;100.620;2023-08-12T16:27:22;9.65;;;6.70;;
23222;SDS011;11780;13.904;100.620;2023-08-12T16:30:07;10.35;;;6.35;;
23222;SDS011;11780;13.904;100.620;2023-08-12T16:32:53;9.10;;;6.65;;
23222;SDS011;11780;13.904;100.620;2023-08-12T16:35:39;12.05;;;6.93;;
23222;SDS011;11780;13.904;100.620;2023-08-12T16:38:24;9.18;;;7.18;;
23222;SDS011;11780;13.904;100.620;2023-08-12T16:41:09;12.90;;;7.75;;
23222;SDS011;11780;13.904;100.620;2023-08-12T16:43:57;12.45;;;7.35;;
23222;SDS011;11780;13.904;100.620;2023-08-12T16:46:42;11.40;;;7.07;;
23222;SDS011;11780;13.904;100.620;2023-08-12T16:49:46;11.10;;;6.90;;
23222;SDS011;11780;13.904;100.620;2023-08-12T16:52:31;11.68;;;7.38;;
23222;SDS011;11780;13.904;100.620;2023-08-12T16:55:16;13.73;;;8.00;;
23222;SDS011;11780;13.904;100.620;2023-08-12T16:58:01;13.57;;;7.90;;
23222;SDS011;11780;13.904;100.620;2023-08-12T17:00:49;12.85;;;8.25;;
23222;SDS011;11780;13.904;100.620;2023-08-12T17:03:34;13.68;;;7.55;;